The Race Organiser : Draycote Water - Past Results

Draycote Water

Next Race: 09/08/2020 + 59 others

Summer 10K Series - September Results


09/09/2018, 09:45
Position First Name Last Name Gender Club Category Gender Pos Net Time Categ Pos Time Action
1 Danny Warren Male Badgers Male Senior 1 00:35:36 1 00:35:37 --
2 Robert Cartwright Male Wolverhampton & Bilston AC Male Senior 2 00:36:40 2 00:36:41 --
3 Adam Walker Male Rugby Triathlon Club Male Senior 3 00:37:29 3 00:37:29 --
4 Rob Osborn Male Lutterworth Cc Tri Team Male Senior 4 00:38:15 4 00:38:17 --
5 Daniel Cook Male Rugby & Northampton Male Senior 5 00:38:46 5 00:38:47 --
6 Jonathan Harrison Male Male Senior 6 00:39:12 6 00:39:13 --
7 Rosanna Andrews Female Rugby & Northampton Female Senior 1 00:39:40 1 00:39:41 --
8 Sam Weaving Male Stratford Upon Avon AC Male Senior 7 00:40:13 7 00:40:14 --
9 Nick Gower Male MV40 8 00:40:24 1 00:40:26 --
10 James Wormall Male Rugby & Northampton MV40 9 00:40:47 2 00:40:49 --
11 Alan Male Westend Runners MV40 10 00:41:04 3 00:41:06 --
12 Martin Wilde Male Coventry Godiva harriers Male Senior 11 00:41:46 8 00:41:47 --
13 Paul Okey Male Leamington C&AC MV40 12 00:42:04 4 00:42:07 --
14 Simon Hewitt Male Male Senior 13 00:42:15 9 00:42:21 --
15 Neil Kelly Male Male Senior 14 00:42:23 10 00:42:25 --
16 STUART KEEN Male MV40 15 00:43:19 5 00:43:19 --
17 Jonathan Print Male MV50 16 00:43:31 1 00:43:38 --
18 Julie Wargent Female Higham Harriers AC FV40 2 00:43:49 1 00:43:52 --
19 Chloe Kinton Female Female Senior 3 00:44:03 2 00:44:04 --
20 Thomas Leech Male Male Senior 17 00:44:24 11 00:44:43 --
21 Matthew Kay Male Male Senior 18 00:44:30 12 00:44:47 --
22 Sebastiano Putti Male Male Senior 19 00:44:51 13 00:44:55 --
23 Derek Brown Male city of hull ac MV50 20 00:45:19 2 00:45:22 --
24 Romeo Chinomona Male Male Senior 21 00:45:19 14 00:45:37 Claimed
25 Rodney Berry Male Daventry Road Runners MV50 22 00:45:34 3 00:45:38 --
26 Andrea Finnigan Female Kidlington Running Club FV40 4 00:45:42 2 00:45:48 --
27 Paul Price Male Rugby & Northampton AC Male Senior 23 00:45:45 15 00:45:52 --
28 Aaron Dudley Male Male Senior 24 00:45:59 16 00:46:03 --
29 David Veasey Male MV60 25 00:46:13 1 00:46:15 --
30 Jess Orton Female Female Senior 5 00:46:45 3 00:46:47 --
31 Jonathan Clayden Male Male Senior 26 00:47:06 17 00:47:14 --
32 Keita Okado Male Male Senior 27 00:47:17 18 00:47:19 --
33 SHO MATSUYAMA Male Male Senior 28 00:47:24 19 00:47:26 --
34 Ben Goodyear Male MV40 29 00:47:44 6 00:47:55 --
35 Kate Bond Female Daventry Road Runners FV50 6 00:47:56 1 00:47:59 --
36 Andrea Noardo Male Male Senior 30 00:48:24 20 00:48:45 --
37 Jon Curry Male Male Senior 31 00:48:41 21 00:48:54 --
38 Tom Kirkbride Male MV40 32 00:49:13 7 00:49:16 --
39 Paul Collins Male vegan runners UK Male Senior 33 00:49:28 22 00:49:31 --
40 Harpreet Male MV40 34 00:50:06 8 00:50:09 --
41 Clive Catlin Male MV60 35 00:50:00 2 00:50:11 --
42 Rachael Kilby Female Vegan Runners Female Senior 7 00:51:05 4 00:51:08 --
43 Ian Straughan Male MV40 36 00:51:27 9 00:51:35 --
44 Martin White Male MV50 37 00:51:50 4 00:52:02 --
45 Masayuki Tsuji Male MV40 38 00:52:07 10 00:52:08 --
46 Ruth Gibbins Female FV40 8 00:52:00 3 00:52:10 --
47 Paul Varnish Male MV40 39 00:52:20 11 00:52:40 --
48 Hubert Marcinkowski Male MV40 40 00:52:36 12 00:52:41 --
49 James Walker Male Male Senior 41 00:53:19 23 00:53:31 --
50 Rachael Warren Female Badgers Female Senior 9 00:53:41 5 00:53:48 Claimed
51 Darryl Thomson Male MV50 42 00:53:49 5 00:53:56 --
52 Matt Woods Male Male Senior 43 00:53:45 24 00:54:06 --
53 Stuart Whiley Male MV50 44 00:54:05 6 00:54:18 --
54 David Colliver Male MV40 45 00:54:34 13 00:54:48 --
55 Rosalind Colliver Female Female Senior 10 00:54:35 6 00:54:49 --
56 Steve Webb Male MV50 46 00:54:51 7 00:55:12 --
57 Aidan Templeton-browne Male Male Senior 47 00:55:08 25 00:55:26 Claimed
58 Anthony Mellor Male Male Senior 48 00:55:21 26 00:55:33 --
59 Sarah Blackmore Female Female Senior 11 00:55:28 7 00:55:43 --
60 Steven Piantoni Male MV40 49 00:55:34 14 00:55:44 --
61 Steve Mulcaster Male MV40 50 00:56:13 15 00:56:13 --
62 John Russell Male MV40 51 00:56:11 16 00:56:22 --
63 Ruth Rogerson Female FV40 12 00:56:12 4 00:56:23 --
63 Gary Betts Male MV50 52 00:56:03 8 00:56:23 --
65 Simon Tucker Male vegan runners UK MV50 53 00:56:04 9 00:56:24 --
66 Robin Hayward Male Male Senior 54 00:56:13 27 00:56:31 --
67 Stuart Male Male Senior 55 00:56:27 28 00:56:33 --
68 Josh Merrett Male Male Senior 56 00:56:19 29 00:56:37 --
68 Dean Allison Male Male Senior 57 00:56:19 30 00:56:37 --
70 Helen Smith Female vegan runners UK FV40 13 00:56:28 5 00:56:39 --
71 Gary Harris Male MV50 58 00:57:13 10 00:57:18 --
72 Daniel Edwards Male Male Senior 59 00:57:16 31 00:57:29 Claimed
73 Polly Dudley-Clayden Female Female Senior 14 00:57:30 8 00:57:34 --
74 Lyndsay Jordan Female FV40 15 00:57:33 6 00:57:39 --
75 Laura Bishop Female FV50 16 00:57:21 2 00:57:44 --
76 Robert Miles Male MV50 60 00:57:41 11 00:57:47 --
77 Amber Tsoi Female Female Senior 17 00:57:49 9 00:57:53 --
78 Giuseppe Polito Male MV50 61 00:57:39 12 00:57:57 --
79 Michael Search Male Kidlington Running Club MV70 62 00:57:56 1 00:58:15 --
80 Phil Lynch Male MV50 63 00:58:13 13 00:58:20 --
81 Claire Ceruti Female Female Senior 18 00:58:16 10 00:58:22 Claimed
82 Diane Hale Female FV50 19 00:58:50 3 00:58:55 --
82 Susie Davies Female Female Senior 20 00:58:37 11 00:58:55 --
84 Jenni Tomkinson Female Female Senior 21 00:58:48 12 00:59:02 --
85 Adam Payne Male Male Senior 64 00:58:49 32 00:59:05 --
86 Alasdair Young Male MV50 65 00:58:48 14 00:59:07 Claimed
87 Catherine Berry Female FV50 22 00:59:27 4 00:59:35 --
88 Tom Goode Male Male Senior 66 00:59:23 33 00:59:39 --
89 Jenny Raithby Female Female Senior 23 00:59:49 13 00:59:55 --
90 Andrea Buglione Male Male Senior 67 00:59:55 34 01:00:14 --
91 Vicky S Female FV40 24 01:00:20 7 01:00:24 --
92 Karolina Anders Female Female Senior 25 01:00:16 14 01:00:26 --
93 Lisa Deeming Female Female Senior 26 01:00:29 15 01:00:41 --
94 Selina Kermode Female Female Senior 27 01:00:37 16 01:00:53 --
95 Melanie Female FV40 28 01:00:47 8 01:00:54 --
96 Helen Kent Female FV40 29 01:00:59 9 01:01:05 Claimed
97 Larissa Whiley Female FV50 30 01:00:58 5 01:01:11 --
98 Neil Thomson Male MV40 68 01:01:23 17 01:01:31 --
99 Denise Howard Female FV50 31 01:01:33 6 01:01:39 --
99 Jane Puleston Female Towcester Running Mate FV50 32 01:01:34 7 01:01:39 --
99 Sarah Des Female FV40 33 01:01:34 10 01:01:39 --
102 Jon Nottingham+s Female Female Senior 34 01:01:34 17 01:01:55 --
103 Ruth Peaker Female Female Senior 35 01:02:07 18 01:02:17 --
104 Katie Marsden Female Female Senior 36 01:02:10 19 01:02:24 --
105 Gareth Davies Male Male Senior 69 01:02:27 35 01:02:43 --
106 Andrew Dixon Male MV50 70 01:02:45 15 01:02:57 --
107 Jason Brown Male Male Senior 71 01:03:07 36 01:03:18 Claimed
108 Alex Brown Male Male Senior 72 01:03:35 37 01:03:38 --
109 Lorraine Blower Female FV40 37 01:03:31 11 01:03:48 --
110 Jenny Scott Female FV50 38 01:03:54 8 01:04:00 Claimed
110 Matara Scott Female Female Senior 39 01:03:54 20 01:04:00 --
112 Liz Harber Female Female Senior 40 01:05:14 21 01:05:27 --
113 Kim Beck Female FV40 41 01:05:35 12 01:05:41 --
114 Kate Rice Female Female Senior 42 01:06:56 22 01:07:11 --
115 Iliana Peneva Female Female Senior 43 01:07:34 23 01:07:38 --
116 Beatrice Stait Female FV40 44 01:07:28 13 01:07:48 --
117 Rachel Judson Female Female Senior 45 01:07:35 24 01:07:49 Claimed
118 Vicky Smallwood Female Female Senior 46 01:07:41 25 01:07:57 Claimed
119 Lucy Newman Female Female Senior 47 01:07:43 26 01:07:59 --
120 Melinda Wood Female FV40 48 01:07:53 14 01:08:02 --
120 Bilal Salman Male Male Senior 73 01:07:55 38 01:08:02 Claimed
122 Chris Haydon Male MV40 74 01:07:55 18 01:08:04 --
123 Gemma Best Female Female Senior 49 01:09:41 27 01:09:51 --
124 Emma Morris Female Female Senior 50 01:10:56 28 01:11:12 --
125 Aman Nijjar Female Female Senior 51 01:12:38 29 01:12:53 --
126 Steph Coles Female Female Senior 52 01:12:50 30 01:13:08 --
127 Vicki Nevin Female Female Senior 53 01:13:28 31 01:13:44 Claimed
128 Matthew Richardson Male Male Senior 75 01:13:47 39 01:14:08 --
129 Susan Young Female FV50 54 01:14:07 9 01:14:27 --
130 Natalie Polito Female Female Senior 55 01:14:42 32 01:14:59 --
131 Emma Plunkett Female FV40 56 01:15:07 15 01:15:18 --
132 Susan Miles Female FV50 57 01:16:18 10 01:16:31 Claimed
133 Claire Lamond Female Dunstable Road Runners Female Senior 58 01:16:17 33 01:16:36 --
133 Carly Straughan Female Female Senior 59 01:16:17 34 01:16:36 --
135 Sarah Redley Female Female Senior 60 01:17:20 35 01:17:27 --
136 Maggie Rashid Female FV60 61 01:17:20 1 01:17:28 --
137 Allison Female Female Senior 62 01:18:38 36 01:19:00 --
138 Gillian Nevin Female FV60 63 01:19:34 2 01:19:50 --
139 Reena Singadia Female England athletics Female Senior 64 01:23:25 37 01:23:35 Claimed
140 Shruti Mistry Female Female Senior 65 01:29:44 38 01:29:55 --